Millville, California
Current Conditions -  °F | °C
As of 1:53 AM on Sunday 21 Dec 2014 (Local Time) from KRDD Reporting Station
Overcast Overcast  
Wind Chill: 53°   Ceiling: 700
Heat Index: 53°   Visibility: 10mi
Dew Point: 52°   Wind: 10mph
Humidity: 96%   Direction: 190°S
Pressure: 30.23"   Gusts: NA
Location:  40.55°N, 122.17°W
Report Text: KRDD 210953Z 19009KT 10SM OVC007 12/11 A3023 RMK AO2 SLP234 T01170111
Loading
Personal Weather Stations






























Interactive Weather Map New forecast layout! Learn more

10-Day Weather Forecast

Advertisements
Track Severe Weather on mobile